Time;durP1;ratioP1;P1;durP2;ratioP2;P2;SDS_P1;SDS_P2;PMS_P1;PMS_P2;Temp;Humidity;BMP_temperature;BMP_pressure;BME280_temperature;BME280_humidity;BME280_pressure;Samples;Min_cycle;Max_cycle;Signal;HPM_P1;HPM_P2
2022/03/04 00:01:10;;;;;;;;;56.50;43.75;;;;;11.11;100.00;101029.09;5117893;27;45398;-78
2022/03/04 00:03:36;;;;;;;;;52.50;41.75;;;;;10.24;100.00;100873.41;5116758;27;45261;-76
2022/03/04 00:06:01;;;;;;;;;56.50;45.25;;;;;9.92;100.00;100812.94;5109153;27;45675;-79
2022/03/04 00:08:26;;;;;;;;;59.00;47.75;;;;;11.64;100.00;101111.81;5108397;27;45299;-77
2022/03/04 00:10:52;;;;;;;;;52.50;44.00;;;;;10.99;100.00;101016.28;5122957;27;45583;-79
2022/03/04 00:13:17;;;;;;;;;61.00;45.75;;;;;10.95;100.00;101017.47;5115566;27;45184;-79
2022/03/04 00:15:42;;;;;;;;;53.25;42.25;;;;;10.56;100.00;100945.63;5120599;27;45272;-79
2022/03/04 00:18:08;;;;;;;;;61.50;46.75;;;;;11.66;100.00;101114.47;5108293;27;45092;-76
2022/03/04 00:20:33;;;;;;;;;57.00;47.50;;;;;11.94;100.00;101163.44;5107831;27;45753;-77
2022/03/04 00:22:59;;;;;;;;;59.75;47.50;;;;;11.95;100.00;101170.66;5121476;27;45111;-79
2022/03/04 00:25:24;;;;;;;;;60.50;48.25;;;;;11.81;100.00;101146.16;5109762;27;45742;-78
2022/03/04 00:27:49;;;;;;;;;52.75;42.50;;;;;11.97;100.00;101177.88;5112759;27;45107;-77
2022/03/04 00:30:15;;;;;;;;;54.25;42.00;;;;;11.97;100.00;101170.56;5123113;27;45881;-77
2022/03/04 00:32:41;;;;;;;;;58.75;46.75;;;;;11.58;100.00;101119.53;5119472;27;45230;-78
2022/03/04 00:35:08;;;;;;;;;59.00;47.75;;;;;11.59;100.00;101118.56;5123824;27;46172;-79
2022/03/04 00:37:33;;;;;;;;;56.25;44.25;;;;;11.64;100.00;101111.81;5127523;27;45454;-79
2022/03/04 00:39:59;;;;;;;;;58.50;46.25;;;;;10.71;100.00;100970.97;5111217;27;45358;-78
2022/03/04 00:42:24;;;;;;;;;54.75;43.50;;;;;10.23;100.00;100875.22;5120092;27;45007;-79
2022/03/04 00:44:50;;;;;;;;;61.00;47.50;;;;;10.27;100.00;100874.09;5132874;27;45067;-79
2022/03/04 00:47:15;;;;;;;;;57.25;46.75;;;;;10.26;100.00;100885.94;5129414;27;46259;-79
2022/03/04 00:49:40;;;;;;;;;58.25;45.00;;;;;10.51;100.00;100917.84;5119479;27;46098;-79
2022/03/04 00:52:06;;;;;;;;;62.25;47.50;;;;;10.26;100.00;100869.63;5130720;27;45564;-78
2022/03/04 00:54:31;;;;;;;;;55.00;45.00;;;;;11.37;100.00;101053.75;5092777;27;45190;-78
2022/03/04 00:56:57;;;;;;;;;60.25;47.00;;;;;11.93;100.00;101152.66;5126461;27;45120;-78
2022/03/04 00:59:22;;;;;;;;;64.00;47.75;;;;;11.97;100.00;101159.66;5114245;27;45862;-78
2022/03/04 01:01:48;;;;;;;;;60.25;46.50;;;;;11.96;100.00;101157.88;5121431;27;45164;-79
2022/03/04 01:04:13;;;;;;;;;61.00;48.00;;;;;11.66;100.00;101112.63;5117565;27;45200;-79
2022/03/04 01:06:40;;;;;;;;;59.00;47.50;;;;;11.56;100.00;101100.59;5122889;27;45085;-80
2022/03/04 01:09:05;;;;;;;;;60.25;46.75;;;;;11.11;100.00;101023.66;5124622;27;45184;-79
2022/03/04 01:11:32;;;;;;;;;58.00;46.00;;;;;11.58;100.00;101112.25;5110866;27;45015;-79
2022/03/04 01:13:57;;;;;;;;;65.50;51.50;;;;;11.81;100.00;101162.50;5111219;27;45409;-80
2022/03/04 01:16:24;;;;;;;;;55.00;45.00;;;;;11.82;100.00;101163.41;5124152;27;45048;-79
2022/03/04 01:18:50;;;;;;;;;62.00;48.25;;;;;11.64;100.00;101140.91;5115106;27;45251;-79
2022/03/04 01:21:15;;;;;;;;;59.75;47.00;;;;;11.78;100.00;101153.66;5110922;27;45197;-79
2022/03/04 01:23:41;;;;;;;;;63.00;50.25;;;;;11.65;100.00;101129.91;5119204;27;45251;-80
2022/03/04 01:26:06;;;;;;;;;58.00;46.00;;;;;11.17;100.00;101044.16;5123956;27;45091;-79
2022/03/04 01:28:32;;;;;;;;;61.00;49.50;;;;;11.05;100.00;101032.22;5124775;27;45187;-79
2022/03/04 01:30:58;;;;;;;;;62.00;49.50;;;;;10.85;100.00;100989.13;5110913;27;45336;-81
2022/03/04 01:33:23;;;;;;;;;64.25;50.25;;;;;11.16;100.00;101058.75;5116795;27;45219;-78
2022/03/04 01:35:48;;;;;;;;;63.25;50.25;;;;;11.85;100.00;101169.50;5111345;27;45297;-79
2022/03/04 01:38:14;;;;;;;;;62.00;48.25;;;;;10.64;100.00;100965.06;5122760;27;46425;-78
2022/03/04 01:40:39;;;;;;;;;60.50;50.00;;;;;10.20;100.00;100893.59;5118777;27;45234;-79
2022/03/04 01:43:05;;;;;;;;;59.50;48.50;;;;;11.85;100.00;101164.06;5118157;27;45583;-79
2022/03/04 01:45:30;;;;;;;;;63.00;50.00;;;;;10.45;100.00;100940.00;5100036;27;45207;-78
2022/03/04 01:47:56;;;;;;;;;59.25;47.75;;;;;11.48;100.00;101112.94;5121817;27;46891;-78
2022/03/04 01:50:24;;;;;;;;;64.75;48.75;;;;;10.12;100.00;100878.63;5126231;27;45361;-79
2022/03/04 01:52:49;;;;;;;;;61.00;48.50;;;;;11.85;100.00;101164.06;5111829;27;45733;-79
2022/03/04 01:55:15;;;;;;;;;61.25;49.75;;;;;10.90;100.00;100992.41;5137988;27;44905;-80
2022/03/04 01:57:42;;;;;;;;;59.00;46.75;;;;;11.84;100.00;101170.47;5108235;27;45133;-79
2022/03/04 02:00:10;;;;;;;;;64.50;49.25;;;;;10.67;100.00;100950.38;5100972;27;45240;-82
2022/03/04 02:02:36;;;;;;;;;67.25;51.00;;;;;11.06;100.00;101024.94;5105960;27;45272;-80
2022/03/04 02:05:02;;;;;;;;;65.00;48.50;;;;;11.84;100.00;101142.38;5110691;27;45004;-81
2022/03/04 02:07:28;;;;;;;;;60.75;50.00;;;;;11.81;100.00;101151.59;5105928;27;45641;-79
2022/03/04 02:09:53;;;;;;;;;57.75;45.75;;;;;11.79;100.00;101145.34;5097114;27;45182;-78
2022/03/04 02:12:19;;;;;;;;;59.50;48.50;;;;;11.40;100.00;101081.66;5089278;27;44974;-78
2022/03/04 02:14:44;;;;;;;;;62.25;50.00;;;;;10.70;100.00;100960.19;5089381;27;45014;-79
2022/03/04 02:17:09;;;;;;;;;58.00;46.25;;;;;10.49;100.00;100940.66;5090595;27;45439;-79
2022/03/04 02:19:34;;;;;;;;;62.75;49.75;;;;;10.49;100.00;100941.56;5095499;27;45019;-77
2022/03/04 02:22:02;;;;;;;;;62.75;49.50;;;;;10.39;100.00;100915.91;5105472;27;45066;-77
2022/03/04 02:24:30;;;;;;;;;62.00;48.25;;;;;10.28;100.00;100900.28;5096688;27;45125;-77
2022/03/04 02:26:58;;;;;;;;;63.00;47.75;;;;;11.61;100.00;101124.78;5102552;27;45144;-77
2022/03/04 02:29:24;;;;;;;;;67.00;52.25;;;;;11.67;100.00;101132.56;5102895;27;45336;-77
2022/03/04 02:31:50;;;;;;;;;63.25;49.00;;;;;11.65;100.00;101138.09;5095433;27;45104;-77
2022/03/04 02:34:16;;;;;;;;;61.25;49.50;;;;;11.64;100.00;101132.75;5103516;27;45060;-77
2022/03/04 02:36:43;;;;;;;;;63.00;50.00;;;;;11.32;100.00;101077.69;5108195;27;45234;-77
2022/03/04 02:39:09;;;;;;;;;54.25;44.50;;;;;11.63;100.00;101128.28;5097358;27;45710;-78
2022/03/04 02:41:34;;;;;;;;;66.50;50.75;;;;;11.55;100.00;101117.00;5093237;27;45261;-77
2022/03/04 02:44:11;;;;;;;;;60.50;48.50;;;;;10.37;100.00;100936.88;5089095;27;45430;-77
2022/03/04 02:46:37;;;;;;;;;66.75;50.00;;;;;10.76;100.00;100993.28;5099851;27;45425;-77
2022/03/04 02:49:05;;;;;;;;;68.50;53.50;;;;;11.33;100.00;101087.59;5092304;27;45398;-77
2022/03/04 02:51:30;;;;;;;;;68.50;54.25;;;;;10.43;100.00;100935.63;5109647;27;45210;-77
2022/03/04 02:53:56;;;;;;;;;63.00;48.00;;;;;10.32;100.00;100931.75;5092511;27;45452;-77
2022/03/04 02:56:21;;;;;;;;;61.25;50.00;;;;;10.95;100.00;101016.56;5103138;27;45292;-79
2022/03/04 02:58:47;;;;;;;;;66.50;51.50;;;;;9.86;100.00;100842.25;5117105;27;45162;-78
2022/03/04 03:01:13;;;;;;;;;64.75;51.25;;;;;10.75;100.00;100990.69;5114508;27;45229;-78
2022/03/04 03:03:38;;;;;;;;;66.50;49.50;;;;;11.60;100.00;101136.63;5123589;27;45154;-77
2022/03/04 03:06:04;;;;;;;;;67.75;52.00;;;;;11.42;100.00;101109.66;5121651;27;45173;-78
2022/03/04 03:08:30;;;;;;;;;65.00;51.00;;;;;11.46;100.00;101114.91;5122068;27;45231;-78
2022/03/04 03:10:56;;;;;;;;;69.00;54.25;;;;;11.57;100.00;101132.28;5125408;27;45336;-78
2022/03/04 03:13:21;;;;;;;;;68.00;52.75;;;;;11.42;100.00;101109.66;5120291;27;45233;-77
2022/03/04 03:15:47;;;;;;;;;65.25;51.25;;;;;11.51;100.00;101126.38;5112939;27;45431;-77
2022/03/04 03:18:13;;;;;;;;;64.00;52.00;;;;;11.34;100.00;101100.22;5118722;27;45140;-77
2022/03/04 03:20:38;;;;;;;;;66.25;53.75;;;;;11.36;100.00;101110.06;5123325;27;45095;-77
2022/03/04 03:23:03;;;;;;;;;63.25;51.25;;;;;9.77;100.00;100847.38;5104156;27;45293;-77
2022/03/04 03:25:29;;;;;;;;;69.25;53.75;;;;;11.40;100.00;101113.44;5129548;27;45534;-77
2022/03/04 03:27:55;;;;;;;;;69.00;51.00;;;;;11.08;100.00;101066.53;5129387;27;45617;-77
2022/03/04 03:30:20;;;;;;;;;62.50;49.75;;;;;11.53;100.00;101138.91;5129085;27;45835;-78
2022/03/04 03:32:46;;;;;;;;;65.75;48.00;;;;;11.54;100.00;101140.63;5122441;27;45263;-78
2022/03/04 03:35:11;;;;;;;;;63.75;49.50;;;;;10.94;100.00;101044.75;5117503;27;45990;-78
2022/03/04 03:37:37;;;;;;;;;57.00;47.00;;;;;11.19;100.00;101096.63;5125822;27;45191;-78
2022/03/04 03:40:05;;;;;;;;;60.25;48.75;;;;;11.41;100.00;101137.84;5108859;27;45184;-78
2022/03/04 03:42:30;;;;;;;;;68.25;50.00;;;;;11.42;100.00;101141.44;5109246;27;45113;-78
2022/03/04 03:44:56;;;;;;;;;60.00;48.25;;;;;11.42;100.00;101136.00;5110255;27;45751;-78
2022/03/04 03:47:21;;;;;;;;;57.25;47.25;;;;;11.48;100.00;101156.50;5122414;27;45163;-78
2022/03/04 03:49:47;;;;;;;;;61.00;45.25;;;;;11.47;100.00;101163.81;5108912;27;45387;-78
2022/03/04 03:52:12;;;;;;;;;50.50;43.00;;;;;11.41;100.00;101146.03;5109111;27;45155;-79
2022/03/04 03:54:38;;;;;;;;;60.00;46.50;;;;;10.70;100.00;101025.44;5109084;27;45522;-78
2022/03/04 03:57:03;;;;;;;;;58.50;46.75;;;;;11.47;100.00;101160.22;5089995;27;45326;-77
2022/03/04 03:59:29;;;;;;;;;55.00;44.50;;;;;11.46;100.00;101153.91;5118311;27;45178;-78
2022/03/04 04:01:54;;;;;;;;;53.75;45.00;;;;;11.24;100.00;101126.28;5109460;27;45296;-78
2022/03/04 04:04:20;;;;;;;;;54.50;45.50;;;;;11.36;100.00;101148.16;5108686;27;45224;-79
2022/03/04 04:06:45;;;;;;;;;53.25;44.25;;;;;11.43;100.00;101160.38;5110754;27;44997;-78
2022/03/04 04:09:11;;;;;;;;;54.50;44.25;;;;;11.43;100.00;101151.34;5108338;27;45367;-77
2022/03/04 04:11:38;;;;;;;;;59.50;46.25;;;;;11.43;100.00;101151.34;5108776;27;45352;-78
2022/03/04 04:14:08;;;;;;;;;53.25;44.25;;;;;9.98;100.00;100919.34;5118054;27;45327;-77
2022/03/04 04:16:34;;;;;;;;;55.75;44.50;;;;;11.11;100.00;101126.19;5107857;27;45184;-77
2022/03/04 04:19:00;;;;;;;;;57.00;45.50;;;;;10.85;100.00;101073.44;5108434;27;45149;-78
2022/03/04 04:21:26;;;;;;;;;53.75;43.75;;;;;11.00;100.00;101099.66;5119012;27;45074;-77
2022/03/04 04:23:53;;;;;;;;;56.00;43.50;;;;;10.93;100.00;101091.97;5108292;27;45403;-77
2022/03/04 04:26:19;;;;;;;;;52.50;42.00;;;;;11.13;100.00;101133.28;5116829;27;45217;-77
2022/03/04 04:28:44;;;;;;;;;56.25;44.75;;;;;10.70;100.00;101069.84;5123247;27;45169;-79
2022/03/04 04:31:09;;;;;;;;;58.75;45.00;;;;;11.30;100.00;101177.59;5120156;27;45012;-76
2022/03/04 04:33:35;;;;;;;;;54.50;44.50;;;;;11.19;100.00;101164.66;5132922;27;45321;-75
2022/03/04 04:36:00;;;;;;;;;53.00;43.50;;;;;10.27;100.00;101034.41;5120369;27;45177;-77
2022/03/04 04:38:26;;;;;;;;;57.50;45.50;;;;;11.22;100.00;101174.50;5133166;27;45258;-76
2022/03/04 04:40:51;;;;;;;;;50.25;42.00;;;;;10.50;100.00;101053.88;5126542;27;44999;-77
2022/03/04 04:43:16;;;;;;;;;59.00;47.75;;;;;11.09;100.00;101161.66;5089761;27;46666;-78
2022/03/04 04:45:43;;;;;;;;;63.75;48.75;;;;;10.30;100.00;101046.97;5115396;27;45158;-78
2022/03/04 04:48:08;;;;;;;;;55.50;45.00;;;;;10.24;100.00;101021.03;5108498;27;45285;-79
2022/03/04 04:50:33;;;;;;;;;57.75;44.75;;;;;11.15;100.00;101195.75;5117990;27;44820;-77
2022/03/04 04:52:59;;;;;;;;;61.00;47.00;;;;;10.48;100.00;101067.56;5108143;27;46226;-77
2022/03/04 04:55:25;;;;;;;;;67.50;46.50;;;;;9.35;100.00;100868.03;5113291;27;45199;-77
2022/03/04 04:57:50;;;;;;;;;62.25;49.75;;;;;9.42;100.00;100907.38;5090455;27;45176;-79
2022/03/04 05:00:17;;;;;;;;;64.75;49.75;;;;;9.95;100.00;100992.00;5094116;27;45131;-77
2022/03/04 05:02:44;;;;;;;;;58.75;47.25;;;;;9.88;100.00;100986.97;5097066;27;45413;-79
2022/03/04 05:05:10;;;;;;;;;62.50;49.00;;;;;10.26;100.00;101038.09;5104990;27;45129;-78
2022/03/04 05:07:35;;;;;;;;;65.25;48.25;;;;;10.73;100.00;101131.28;5087889;27;45061;-79
2022/03/04 05:10:01;;;;;;;;;59.50;47.00;;;;;10.10;100.00;101038.13;5092648;27;45332;-79
2022/03/04 05:12:26;;;;;;;;;61.50;48.75;;;;;10.25;100.00;101044.53;5087203;27;45379;-79
2022/03/04 05:14:51;;;;;;;;;63.00;47.25;;;;;9.41;100.00;100907.50;5088571;27;45164;-78
2022/03/04 05:17:17;;;;;;;;;60.50;46.50;;;;;11.10;100.00;101192.44;5107690;27;45255;-77
2022/03/04 05:19:42;;;;;;;;;55.50;45.75;;;;;10.05;100.00;101029.38;5107211;27;45171;-77
2022/03/04 05:22:07;;;;;;;;;55.25;46.25;;;;;10.51;100.00;101107.28;5097503;27;45971;-78
2022/03/04 05:24:33;;;;;;;;;59.00;48.50;;;;;11.03;100.00;101178.38;5106942;27;45285;-78
2022/03/04 05:26:58;;;;;;;;;61.00;47.50;;;;;11.11;100.00;101211.44;5100850;27;45194;-77
2022/03/04 05:29:24;;;;;;;;;63.75;50.75;;;;;10.35;100.00;101081.03;5100843;27;45096;-76
2022/03/04 05:31:49;;;;;;;;;61.50;48.00;;;;;11.11;100.00;101195.09;5101835;27;45980;-76
2022/03/04 05:34:15;;;;;;;;;59.75;46.75;;;;;10.59;100.00;101113.09;5104671;27;45151;-77
2022/03/04 05:36:41;;;;;;;;;59.50;48.25;;;;;11.14;100.00;101203.06;5097683;27;45189;-77
2022/03/04 05:39:07;;;;;;;;;61.00;49.75;;;;;11.15;100.00;101203.94;5110930;27;45194;-76
2022/03/04 05:41:32;;;;;;;;;61.75;48.50;;;;;9.72;100.00;100968.94;5090410;27;45929;-77
2022/03/04 05:43:59;;;;;;;;;63.25;47.75;;;;;10.53;100.00;101092.59;5089945;27;45394;-78
2022/03/04 05:46:24;;;;;;;;;64.75;48.25;;;;;10.97;100.00;101162.44;5097738;27;45247;-78
2022/03/04 05:48:49;;;;;;;;;58.25;47.00;;;;;11.19;100.00;101202.78;5089213;27;45042;-78
2022/03/04 05:51:15;;;;;;;;;59.75;48.50;;;;;11.20;100.00;101196.34;5092765;27;45202;-78
2022/03/04 05:53:41;;;;;;;;;59.75;47.75;;;;;10.05;100.00;101015.81;5089087;27;45326;-77
2022/03/04 05:56:08;;;;;;;;;61.25;48.00;;;;;11.06;100.00;101167.31;5103908;27;45375;-78
2022/03/04 05:58:35;;;;;;;;;56.50;44.50;;;;;11.22;100.00;101205.31;5099762;27;45224;-77
2022/03/04 06:01:01;;;;;;;;;60.75;49.25;;;;;11.10;100.00;101177.03;5116880;27;45252;-78
2022/03/04 06:03:27;;;;;;;;;60.75;46.75;;;;;9.69;100.00;100942.88;5115389;27;45384;-76
2022/03/04 06:05:53;;;;;;;;;66.00;47.25;;;;;11.00;100.00;101180.38;5109211;27;45363;-77
2022/03/04 06:08:18;;;;;;;;;60.50;48.25;;;;;9.82;100.00;100976.44;5108307;27;45617;-78
2022/03/04 06:10:44;;;;;;;;;55.25;44.00;;;;;9.81;100.00;100965.69;5114774;27;45581;-77
2022/03/04 06:13:12;;;;;;;;;59.00;46.25;;;;;11.09;100.00;101171.66;5118367;27;45205;-76
2022/03/04 06:15:38;;;;;;;;;63.50;49.75;;;;;11.28;100.00;101215.81;5118464;27;45293;-77
2022/03/04 06:18:03;;;;;;;;;58.25;45.75;;;;;11.28;100.00;101221.25;5128724;27;45467;-77
2022/03/04 06:20:28;;;;;;;;;60.25;47.00;;;;;11.28;100.00;101221.25;5098643;27;46955;-77
2022/03/04 06:22:54;;;;;;;;;56.50;47.50;;;;;11.30;100.00;101224.75;5111852;27;45155;-77
2022/03/04 06:25:20;;;;;;;;;60.25;48.25;;;;;10.58;100.00;101120.38;5127749;27;45129;-76
2022/03/04 06:27:55;;;;;;;;;62.50;50.50;;;;;11.24;100.00;101219.69;5127167;27;45410;-77
2022/03/04 06:30:21;;;;;;;;;58.75;46.75;;;;;10.63;100.00;101126.41;5109961;27;46611;-77
2022/03/04 06:32:48;;;;;;;;;59.50;45.75;;;;;10.98;100.00;101177.78;5110271;27;45121;-77
2022/03/04 06:35:13;;;;;;;;;55.25;45.25;;;;;9.72;100.00;100956.25;5120654;27;45135;-78
2022/03/04 06:37:38;;;;;;;;;59.75;47.25;;;;;11.05;100.00;101181.88;5121959;27;46177;-76
2022/03/04 06:40:06;;;;;;;;;60.50;48.25;;;;;10.56;100.00;101113.31;5128195;27;45450;-76
2022/03/04 06:42:32;;;;;;;;;62.00;47.50;;;;;11.20;100.00;101204.50;5125516;27;45135;-76
2022/03/04 06:44:57;;;;;;;;;59.50;46.00;;;;;10.85;100.00;101150.47;5129724;27;45215;-77
2022/03/04 06:47:23;;;;;;;;;55.25;43.50;;;;;11.16;100.00;101216.59;5115252;27;45161;-77
2022/03/04 06:49:48;;;;;;;;;55.50;46.50;;;;;10.46;100.00;101098.53;5116707;27;46490;-77
2022/03/04 06:52:14;;;;;;;;;59.25;47.75;;;;;10.70;100.00;101145.97;5124996;27;45122;-76
2022/03/04 06:54:39;;;;;;;;;58.50;47.00;;;;;11.38;100.00;101254.22;5126607;27;45254;-78
2022/03/04 06:57:04;;;;;;;;;58.25;46.25;;;;;11.40;100.00;101260.44;5105519;27;45257;-77
2022/03/04 06:59:30;;;;;;;;;62.00;47.50;;;;;11.41;100.00;101267.66;5099633;27;45437;-77
2022/03/04 07:01:55;;;;;;;;;55.25;44.00;;;;;11.07;100.00;101209.00;5107219;27;45158;-77
2022/03/04 07:04:21;;;;;;;;;59.75;47.50;;;;;10.75;100.00;101148.41;5105949;27;45866;-77
2022/03/04 07:06:46;;;;;;;;;55.00;45.00;;;;;10.95;100.00;101180.69;5107189;27;45232;-78
2022/03/04 07:09:11;;;;;;;;;53.75;42.50;;;;;11.42;100.00;101270.28;5095803;27;45326;-76
2022/03/04 07:11:37;;;;;;;;;58.75;47.00;;;;;10.86;100.00;101189.41;5103619;27;45157;-78
2022/03/04 07:14:02;;;;;;;;;58.00;45.75;;;;;11.35;100.00;101262.56;5089429;28;45213;-78
2022/03/04 07:16:28;;;;;;;;;54.50;44.75;;;;;11.43;100.00;101269.31;5103709;27;45509;-78
2022/03/04 07:18:53;;;;;;;;;58.00;46.25;;;;;11.45;100.00;101274.63;5108112;27;45180;-78
2022/03/04 07:21:18;;;;;;;;;58.00;47.50;;;;;11.46;100.00;101275.53;5094970;27;45030;-77
2022/03/04 07:23:44;;;;;;;;;56.25;45.25;;;;;10.94;100.00;101194.38;5106365;27;45553;-77
2022/03/04 07:26:10;;;;;;;;;58.75;48.00;;;;;11.49;100.00;101280.78;5099250;27;45159;-78
2022/03/04 07:28:36;;;;;;;;;57.75;46.00;;;;;11.09;100.00;101212.47;5101522;27;45699;-77
2022/03/04 07:31:01;;;;;;;;;55.75;44.75;;;;;11.53;100.00;101290.50;5094053;27;44962;-76
2022/03/04 07:33:27;;;;;;;;;58.00;44.25;;;;;11.54;100.00;101278.66;5090971;27;45233;-78
2022/03/04 07:35:52;;;;;;;;;56.75;48.00;;;;;11.27;100.00;101240.41;5094096;27;45285;-76
2022/03/04 07:38:18;;;;;;;;;59.25;47.00;;;;;11.58;100.00;101288.38;5103245;27;45659;-76
2022/03/04 07:40:47;;;;;;;;;65.00;49.00;;;;;10.70;100.00;101150.53;5084011;27;45375;-77
2022/03/04 07:43:12;;;;;;;;;55.00;45.50;;;;;11.58;100.00;101293.81;5096641;27;45215;-76
2022/03/04 07:45:38;;;;;;;;;59.75;45.00;;;;;11.00;100.00;101194.00;5093790;27;45222;-79
2022/03/04 07:48:04;;;;;;;;;62.75;46.25;;;;;10.92;100.00;101178.16;5101212;27;46069;-78
2022/03/04 07:50:29;;;;;;;;;58.25;46.00;;;;;11.58;100.00;101296.53;5106173;27;45269;-78
2022/03/04 07:52:55;;;;;;;;;62.75;50.00;;;;;11.13;100.00;101224.94;5108951;27;45281;-76
2022/03/04 07:55:20;;;;;;;;;57.75;46.25;;;;;11.59;100.00;101298.28;5101459;27;45612;-78
2022/03/04 07:57:46;;;;;;;;;57.00;45.50;;;;;10.83;100.00;101168.72;5115378;27;45665;-79
2022/03/04 08:00:14;;;;;;;;;59.50;47.00;;;;;11.36;100.00;101273.38;5112077;27;45055;-79
2022/03/04 08:02:40;;;;;;;;;58.50;46.50;;;;;11.58;100.00;101305.59;5109912;27;45083;-78
2022/03/04 08:05:08;;;;;;;;;50.50;40.25;;;;;10.68;100.00;101161.50;5091589;27;45207;-78
2022/03/04 08:07:36;;;;;;;;;64.25;49.00;;;;;11.59;100.00;101304.63;5121238;27;45525;-77
2022/03/04 08:10:03;;;;;;;;;56.25;47.00;;;;;11.60;100.00;101308.22;5098418;27;45203;-78
2022/03/04 08:12:28;;;;;;;;;64.75;47.25;;;;;11.24;100.00;101241.47;5114196;27;45236;-78
2022/03/04 08:14:54;;;;;;;;;56.75;46.75;;;;;11.54;100.00;101297.72;5123895;27;45170;-78
2022/03/04 08:17:19;;;;;;;;;61.25;47.50;;;;;11.62;100.00;101315.31;5119507;27;45481;-78
2022/03/04 08:19:45;;;;;;;;;61.75;48.75;;;;;11.63;100.00;101317.06;5107738;27;45144;-77
2022/03/04 08:22:10;;;;;;;;;65.50;48.75;;;;;11.64;100.00;101320.66;5115665;27;45098;-78
2022/03/04 08:24:35;;;;;;;;;57.25;47.50;;;;;10.65;100.00;101157.13;5117027;27;44952;-78
2022/03/04 08:27:01;;;;;;;;;61.25;48.50;;;;;11.49;100.00;101294.38;5121030;27;45463;-77
2022/03/04 08:29:26;;;;;;;;;63.00;48.75;;;;;11.64;100.00;101321.53;5119395;27;45115;-77
2022/03/04 08:31:51;;;;;;;;;60.50;48.25;;;;;11.63;100.00;101327.09;5127429;27;45327;-78
2022/03/04 08:34:17;;;;;;;;;55.00;44.25;;;;;11.62;100.00;101325.34;5126567;27;44988;-78
2022/03/04 08:36:42;;;;;;;;;51.00;43.25;;;;;10.79;100.00;101193.47;5117857;27;46086;-78
2022/03/04 08:39:07;;;;;;;;;62.25;48.75;;;;;11.24;100.00;101270.53;5128035;27;45191;-79
2022/03/04 08:41:33;;;;;;;;;63.25;50.75;;;;;11.51;100.00;101314.25;5113742;27;45398;-78
2022/03/04 08:43:59;;;;;;;;;67.50;51.00;;;;;11.64;100.00;101332.44;5092738;27;45092;-78
2022/03/04 08:46:24;;;;;;;;;65.25;48.25;;;;;11.18;100.00;101252.72;5116770;27;46299;-79
2022/03/04 08:48:50;;;;;;;;;64.50;49.25;;;;;11.46;100.00;101314.53;5128689;27;45227;-78
2022/03/04 08:51:15;;;;;;;;;64.00;50.25;;;;;11.67;100.00;101339.56;5099066;27;45126;-79
2022/03/04 08:53:41;;;;;;;;;61.50;48.75;;;;;11.69;100.00;101343.03;5107757;27;45076;-79
2022/03/04 08:56:07;;;;;;;;;64.50;51.00;;;;;11.64;100.00;101334.28;5115520;27;45399;-79
2022/03/04 08:58:32;;;;;;;;;64.00;48.25;;;;;11.70;100.00;101340.22;5114275;27;45190;-78
2022/03/04 09:00:58;;;;;;;;;67.25;52.25;;;;;11.67;100.00;101343.16;5106818;27;45361;-80
2022/03/04 09:03:24;;;;;;;;;67.75;53.50;;;;;11.66;100.00;101329.63;5120671;27;45256;-80
2022/03/04 09:05:50;;;;;;;;;60.75;50.00;;;;;11.55;100.00;101313.06;5122449;27;45379;-79
2022/03/04 09:08:15;;;;;;;;;64.75;51.00;;;;;11.51;100.00;101298.78;5120399;27;45072;-79
2022/03/04 09:10:40;;;;;;;;;62.25;48.00;;;;;10.69;100.00;101165.94;5110204;27;45283;-79
2022/03/04 09:13:06;;;;;;;;;63.50;49.25;;;;;11.52;100.00;101305.09;5111751;27;44948;-79
2022/03/04 09:15:32;;;;;;;;;62.50;49.25;;;;;11.77;100.00;101348.03;5097641;27;47136;-78
2022/03/04 09:17:58;;;;;;;;;65.25;51.25;;;;;11.65;100.00;101328.72;5111268;27;45191;-78
2022/03/04 09:20:24;;;;;;;;;55.00;45.75;;;;;11.72;100.00;101325.66;5116980;27;45109;-78
2022/03/04 09:22:49;;;;;;;;;63.25;50.00;;;;;11.23;100.00;101266.06;5109904;27;45092;-79
2022/03/04 09:25:15;;;;;;;;;69.50;52.00;;;;;11.81;100.00;101350.47;5110896;27;45906;-78
2022/03/04 09:27:44;;;;;;;;;68.50;50.50;;;;;11.21;100.00;101235.34;5112001;27;45174;-79
2022/03/04 09:30:14;;;;;;;;;67.50;50.25;;;;;11.16;100.00;101233.78;5130088;27;44995;-79
2022/03/04 09:32:40;;;;;;;;;69.00;52.50;;;;;11.84;100.00;101347.56;5118743;27;45166;-79
2022/03/04 09:35:07;;;;;;;;;67.75;51.50;;;;;11.85;100.00;101343.00;5110847;27;45654;-79
2022/03/04 09:37:33;;;;;;;;;67.00;51.75;;;;;11.86;100.00;101342.00;5111347;27;45147;-79
2022/03/04 09:39:58;;;;;;;;;67.50;51.75;;;;;11.54;100.00;101282.25;5120237;27;45282;-79
2022/03/04 09:42:24;;;;;;;;;62.25;50.00;;;;;11.55;100.00;101280.38;5123352;27;45091;-79
2022/03/04 09:44:49;;;;;;;;;60.75;50.25;;;;;10.06;100.00;101022.97;5117700;27;45560;-79
2022/03/04 09:47:20;;;;;;;;;65.75;50.75;;;;;11.79;100.00;101316.09;5121013;27;45036;-79
2022/03/04 09:49:46;;;;;;;;;68.50;53.00;;;;;10.90;100.00;101161.06;5120931;27;45301;-78
2022/03/04 09:52:12;;;;;;;;;63.00;51.00;;;;;11.81;100.00;101315.06;5123664;27;45008;-79
2022/03/04 09:54:37;;;;;;;;;66.00;51.25;;;;;11.90;100.00;101316.34;5118171;27;45330;-79
2022/03/04 09:57:03;;;;;;;;;66.00;50.00;;;;;12.05;100.00;101337.16;5105408;27;45563;-78
2022/03/04 09:59:28;;;;;;;;;65.50;52.25;;;;;11.90;100.00;101314.47;5084076;28;45246;-78
2022/03/04 10:01:57;;;;;;;;;67.00;49.75;;;;;12.08;100.00;101345.16;5097091;27;45200;-80
2022/03/04 10:04:27;;;;;;;;;68.75;52.75;;;;;11.38;100.00;101235.16;5092614;27;45982;-78
2022/03/04 10:06:53;;;;;;;;;58.75;48.75;;;;;12.11;100.00;101342.22;5091916;27;45135;-80
2022/03/04 10:09:37;;;;;;;;;68.75;51.25;;;;;12.12;100.00;101340.38;5074657;28;45243;-80
2022/03/04 10:12:04;;;;;;;;;64.25;50.25;;;;;12.04;100.00;101334.53;5094321;27;45231;-79
2022/03/04 10:14:33;;;;;;;;;56.75;48.00;;;;;12.14;100.00;101349.31;5092020;27;46410;-79
2022/03/04 10:16:59;;;;;;;;;66.50;51.25;;;;;10.65;100.00;101105.47;5091372;27;45348;-79
2022/03/04 10:19:24;;;;;;;;;69.75;52.75;;;;;11.78;100.00;101290.72;5091179;27;45243;-80
2022/03/04 10:21:54;;;;;;;;;67.75;53.00;;;;;12.17;100.00;101347.28;5096295;27;45120;-79
2022/03/04 10:24:21;;;;;;;;;64.25;49.50;;;;;12.16;100.00;101348.25;5093298;27;45777;-79
2022/03/04 10:26:47;;;;;;;;;70.75;55.00;;;;;11.91;100.00;101296.28;5099853;27;45109;-77
2022/03/04 10:29:22;;;;;;;;;66.25;49.50;;;;;12.22;100.00;101343.41;5109184;27;45237;-79
2022/03/04 10:32:26;;;;;;;;;66.00;52.50;;;;;12.24;100.00;101347.75;5096078;27;45239;-79
2022/03/04 10:35:00;;;;;;;;;63.00;52.25;;;;;12.26;100.00;101350.38;5068421;27;45678;-79
2022/03/04 10:37:48;;;;;;;;;70.50;52.25;;;;;12.28;100.00;101352.06;5108343;27;45178;-79
2022/03/04 10:40:19;;;;;;;;;68.50;52.00;;;;;12.30;100.00;101354.66;5093895;27;45100;-78
2022/03/04 10:43:01;;;;;;;;;64.25;49.00;;;;;12.31;100.00;101360.00;5106977;27;44996;-80
2022/03/04 10:45:40;;;;;;;;;66.50;50.75;;;;;12.20;100.00;101333.44;5097315;27;45845;-78
2022/03/04 10:48:17;;;;;;;;;62.50;49.00;;;;;12.36;100.00;101360.59;5089537;27;45204;-78
2022/03/04 10:50:48;;;;;;;;;68.00;53.00;;;;;11.76;100.00;101256.38;5095114;27;45246;-78
2022/03/04 10:53:21;;;;;;;;;62.25;49.50;;;;;12.40;100.00;101361.28;5089000;27;45048;-78
2022/03/04 10:55:54;;;;;;;;;67.25;53.25;;;;;12.40;100.00;101364.00;5102276;27;46409;-77
2022/03/04 10:58:19;;;;;;;;;69.00;51.75;;;;;12.39;100.00;101356.81;5119266;27;45233;-79